aviador You're here:

KMYJ Decoded Metar

in
Report Time2017-05-26 12:55:00
UTC Time2017-05-26 13:05:36
Flight Rules vfr VFR
Wind180° at 10 Gusting to 16 kt
W.Decomp.*RWY 18: 10.0 kt HW -0 kt LCW
RWY 24: 5.0 kt HW 8.7 kt LCW
W.Rank180° ranks 6
Current wind is above 180° avg. (7.1)
Visibility9999 m
Phenomena:N/A
Clouds:N/A
Expected CloudBase > 800 ft AGL from Temp-Dew spread
CeilingNone
Temp16°C
Dew Point14°C (88% RH)
AAT13.7°C
QNH1005 hPa
Raw Report
KMYJ 261255Z AUTO 18010G16KT 10SM CLR 16/14 A2968 RMK AO2 P0001
LTG DSNT NE AND E=

Extra information for KMYJ:More info

Social comments